XNO410M EHAM-EGGD
Flight info
| Callsign | XNO410M |
|---|---|
| Flight time | 1h 2m |
| Altitude | 34000 |
| Route | IDRID L980 LAM L179 ICTAM |
| Aircraft | A320/M-SDE3FGHIRWY/LB1 |
Departure
| Time | 2026-05-04 20:01 |
|---|---|
| Airport | Amsterdam Airport Schiphol (EHAM) |
Arrival
| Time | 2026-05-04 21:03 |
|---|---|
| Airport | Bristol Airport (EGGD) |
| Time | Latitude | Longitude | Altitude | Speed | Heading |
|---|---|---|---|---|---|
| 2026-05-04 19:22 | 52.31009 | 4.75405 | -1 ft | 0 kts | 148° |
| 2026-05-04 19:46 | 52.31013 | 4.75401 | -1 ft | 4 kts | 149° |
| 2026-05-04 19:46 | 52.31036 | 4.75381 | -1 ft | 4 kts | 137° |
| 2026-05-04 19:47 | 52.31041 | 4.75359 | -1 ft | 4 kts | 75° |
| 2026-05-04 19:47 | 52.31037 | 4.75341 | -1 ft | 0 kts | 70° |
| 2026-05-04 19:50 | 52.31039 | 4.75346 | -1 ft | 2 kts | 60° |
| 2026-05-04 19:50 | 52.31065 | 4.75400 | -1 ft | 9 kts | 53° |
| 2026-05-04 19:50 | 52.31107 | 4.75487 | -1 ft | 11 kts | 33° |
| 2026-05-04 19:50 | 52.31183 | 4.75464 | -1 ft | 13 kts | 347° |
| 2026-05-04 19:51 | 52.31277 | 4.75454 | -1 ft | 15 kts | 355° |
| 2026-05-04 19:51 | 52.31383 | 4.75440 | -1 ft | 13 kts | 356° |
| 2026-05-04 19:51 | 52.31478 | 4.75435 | -1 ft | 14 kts | 347° |
| 2026-05-04 19:51 | 52.31506 | 4.75289 | -1 ft | 16 kts | 265° |
| 2026-05-04 19:52 | 52.31500 | 4.75103 | -1 ft | 18 kts | 267° |
| 2026-05-04 19:52 | 52.31495 | 4.74888 | -1 ft | 20 kts | 268° |
| 2026-05-04 19:52 | 52.31485 | 4.74660 | -1 ft | 21 kts | 267° |
| 2026-05-04 19:52 | 52.31478 | 4.74444 | -1 ft | 19 kts | 267° |
| 2026-05-04 19:53 | 52.31467 | 4.74220 | -1 ft | 21 kts | 245° |
| 2026-05-04 19:53 | 52.31350 | 4.74133 | -1 ft | 20 kts | 181° |
| 2026-05-04 19:53 | 52.31203 | 4.74121 | -1 ft | 22 kts | 182° |
| 2026-05-04 19:53 | 52.31044 | 4.74107 | -1 ft | 24 kts | 183° |
| 2026-05-04 19:54 | 52.30872 | 4.74090 | -1 ft | 26 kts | 183° |
| 2026-05-04 19:54 | 52.30687 | 4.74074 | -1 ft | 28 kts | 183° |
| 2026-05-04 19:54 | 52.30501 | 4.74061 | -1 ft | 23 kts | 185° |
| 2026-05-04 19:54 | 52.30410 | 4.74000 | -1 ft | 0 kts | 249° |
| 2026-05-04 19:57 | 52.30408 | 4.73977 | -1 ft | 6 kts | 265° |
| 2026-05-04 19:57 | 52.30410 | 4.73865 | -2 ft | 13 kts | 271° |
| 2026-05-04 19:57 | 52.30457 | 4.73762 | -2 ft | 3 kts | 358° |
| 2026-05-04 19:58 | 52.30463 | 4.73762 | -2 ft | 0 kts | 1° |
| 2026-05-04 20:00 | 52.30468 | 4.73763 | -2 ft | 3 kts | 2° |
| 2026-05-04 20:00 | 52.30689 | 4.73786 | -2 ft | 71 kts | 1° |
| 2026-05-04 20:00 | 52.31417 | 4.73850 | -2 ft | 135 kts | 3° |
| 2026-05-04 20:00 | 52.32457 | 4.73964 | 407 ft | 153 kts | 5° |
| 2026-05-04 20:01 | 52.33528 | 4.74113 | 1136 ft | 156 kts | 11° |
| 2026-05-04 20:01 | 52.34572 | 4.74624 | 1846 ft | 159 kts | 22° |
| 2026-05-04 20:01 | 52.35650 | 4.75322 | 2358 ft | 174 kts | 23° |
| 2026-05-04 20:01 | 52.36767 | 4.76266 | 2783 ft | 190 kts | 43° |
| 2026-05-04 20:02 | 52.37443 | 4.78196 | 3230 ft | 208 kts | 79° |
| 2026-05-04 20:02 | 52.37321 | 4.80620 | 3826 ft | 223 kts | 106° |
| 2026-05-04 20:02 | 52.36575 | 4.82902 | 4513 ft | 234 kts | 131° |
| 2026-05-04 20:02 | 52.35260 | 4.84509 | 5290 ft | 243 kts | 158° |
| 2026-05-04 20:03 | 52.33588 | 4.85010 | 5922 ft | 257 kts | 181° |
| 2026-05-04 20:03 | 52.31770 | 4.84957 | 6554 ft | 272 kts | 181° |
| 2026-05-04 20:03 | 52.29826 | 4.84898 | 7410 ft | 277 kts | 181° |
| 2026-05-04 20:03 | 52.27884 | 4.84863 | 8337 ft | 280 kts | 178° |
| 2026-05-04 20:04 | 52.25948 | 4.85411 | 9273 ft | 285 kts | 162° |
| 2026-05-04 20:04 | 52.24156 | 4.86807 | 10162 ft | 290 kts | 147° |
| 2026-05-04 20:04 | 52.22523 | 4.88864 | 10776 ft | 304 kts | 142° |
| 2026-05-04 20:04 | 52.20830 | 4.91078 | 11263 ft | 321 kts | 142° |
| 2026-05-04 20:05 | 52.19037 | 4.93416 | 11730 ft | 338 kts | 143° |
| 2026-05-04 20:05 | 52.16953 | 4.95272 | 12385 ft | 345 kts | 163° |
| 2026-05-04 20:05 | 52.14584 | 4.95822 | 13153 ft | 348 kts | 183° |
| 2026-05-04 20:05 | 52.12155 | 4.95489 | 13887 ft | 353 kts | 186° |
| 2026-05-04 20:06 | 52.09774 | 4.94697 | 14548 ft | 356 kts | 202° |
| 2026-05-04 20:06 | 52.07657 | 4.92716 | 15251 ft | 357 kts | 221° |
| 2026-05-04 20:06 | 52.06070 | 4.89703 | 15943 ft | 358 kts | 240° |
| 2026-05-04 20:06 | 52.05188 | 4.85923 | 16638 ft | 360 kts | 259° |
| 2026-05-04 20:07 | 52.04735 | 4.81892 | 17304 ft | 365 kts | 260° |
| 2026-05-04 20:07 | 52.04284 | 4.77812 | 17991 ft | 368 kts | 260° |
| 2026-05-04 20:07 | 52.03828 | 4.73698 | 18630 ft | 371 kts | 260° |
| 2026-05-04 20:07 | 52.03365 | 4.69571 | 19373 ft | 368 kts | 259° |
| 2026-05-04 20:08 | 52.03031 | 4.66634 | 20033 ft | 350 kts | 259° |
| 2026-05-04 20:08 | 52.02604 | 4.63003 | 20734 ft | 321 kts | 259° |
| 2026-05-04 20:08 | 52.02188 | 4.59410 | 21493 ft | 318 kts | 259° |
| 2026-05-04 20:08 | 52.01793 | 4.55960 | 22238 ft | 306 kts | 259° |
| 2026-05-04 20:09 | 52.01409 | 4.52618 | 22811 ft | 300 kts | 259° |
| 2026-05-04 20:09 | 52.01027 | 4.49285 | 23224 ft | 301 kts | 259° |
| 2026-05-04 20:09 | 52.00638 | 4.45940 | 23621 ft | 302 kts | 259° |
| 2026-05-04 20:09 | 52.00246 | 4.42580 | 23978 ft | 304 kts | 259° |
| 2026-05-04 20:10 | 51.99852 | 4.39199 | 24331 ft | 305 kts | 259° |
| 2026-05-04 20:10 | 51.99472 | 4.35940 | 24679 ft | 307 kts | 259° |
| 2026-05-04 20:10 | 51.99073 | 4.32518 | 25055 ft | 309 kts | 258° |
| 2026-05-04 20:10 | 51.98671 | 4.29087 | 25410 ft | 311 kts | 258° |
| 2026-05-04 20:11 | 51.98263 | 4.25618 | 25780 ft | 313 kts | 258° |
| 2026-05-04 20:11 | 51.97857 | 4.22186 | 26153 ft | 315 kts | 258° |
| 2026-05-04 20:11 | 51.97441 | 4.18686 | 26538 ft | 317 kts | 257° |
| 2026-05-04 20:11 | 51.97020 | 4.15157 | 26928 ft | 320 kts | 257° |
| 2026-05-04 20:12 | 51.96598 | 4.11608 | 27321 ft | 322 kts | 257° |
| 2026-05-04 20:12 | 51.96170 | 4.08028 | 27725 ft | 324 kts | 257° |
| 2026-05-04 20:12 | 51.95737 | 4.04429 | 28129 ft | 327 kts | 256° |
| 2026-05-04 20:12 | 51.95299 | 4.00797 | 28541 ft | 329 kts | 256° |
| 2026-05-04 20:13 | 51.94855 | 3.97138 | 28888 ft | 334 kts | 256° |
| 2026-05-04 20:13 | 51.94395 | 3.93379 | 29031 ft | 346 kts | 256° |
| 2026-05-04 20:13 | 51.93918 | 3.89487 | 29183 ft | 357 kts | 256° |
| 2026-05-04 20:13 | 51.93431 | 3.85487 | 29319 ft | 368 kts | 256° |
| 2026-05-04 20:14 | 51.92928 | 3.81351 | 29475 ft | 378 kts | 256° |
| 2026-05-04 20:14 | 51.92410 | 3.77098 | 29611 ft | 389 kts | 256° |
| 2026-05-04 20:14 | 51.91885 | 3.72818 | 29749 ft | 398 kts | 256° |
| 2026-05-04 20:14 | 51.91356 | 3.68506 | 29898 ft | 407 kts | 256° |
| 2026-05-04 20:15 | 51.90798 | 3.63952 | 30037 ft | 416 kts | 256° |
| 2026-05-04 20:15 | 51.89919 | 3.56835 | 30234 ft | 429 kts | 256° |
| 2026-05-04 20:15 | 51.88723 | 3.47255 | 30735 ft | 437 kts | 256° |
| 2026-05-04 20:15 | 51.88039 | 3.41785 | 31149 ft | 439 kts | 256° |
| 2026-05-04 20:16 | 51.87431 | 3.36940 | 31544 ft | 439 kts | 256° |
| 2026-05-04 20:16 | 51.86889 | 3.32644 | 32008 ft | 436 kts | 256° |
| 2026-05-04 20:16 | 51.86444 | 3.29136 | 32406 ft | 434 kts | 256° |
| 2026-05-04 20:16 | 51.85839 | 3.24375 | 33060 ft | 427 kts | 256° |
| 2026-05-04 20:17 | 51.85246 | 3.19720 | 33753 ft | 420 kts | 256° |
| 2026-05-04 20:17 | 51.84779 | 3.15083 | 33983 ft | 417 kts | 262° |
| 2026-05-04 20:17 | 51.84476 | 3.10424 | 34029 ft | 416 kts | 262° |
| 2026-05-04 20:18 | 51.83880 | 3.01127 | 34027 ft | 416 kts | 262° |
| 2026-05-04 20:18 | 51.83275 | 2.91798 | 34028 ft | 416 kts | 262° |
| 2026-05-04 20:18 | 51.82972 | 2.87210 | 34031 ft | 403 kts | 262° |
| 2026-05-04 20:19 | 51.82680 | 2.82779 | 34033 ft | 394 kts | 262° |
| 2026-05-04 20:19 | 51.82086 | 2.73975 | 34029 ft | 394 kts | 261° |
| 2026-05-04 20:20 | 51.81478 | 2.65157 | 34034 ft | 394 kts | 261° |
| 2026-05-04 20:20 | 51.80870 | 2.56404 | 34035 ft | 395 kts | 261° |
| 2026-05-04 20:21 | 51.80253 | 2.47554 | 34033 ft | 401 kts | 261° |
| 2026-05-04 20:21 | 51.79277 | 2.33715 | 34035 ft | 419 kts | 261° |
| 2026-05-04 20:22 | 51.78598 | 2.24362 | 34033 ft | 419 kts | 261° |
| 2026-05-04 20:22 | 51.77976 | 2.14987 | 34034 ft | 420 kts | 263° |
| 2026-05-04 20:23 | 51.77458 | 2.05600 | 34041 ft | 420 kts | 263° |
| 2026-05-04 20:23 | 51.76929 | 1.96189 | 34044 ft | 420 kts | 263° |
| 2026-05-04 20:24 | 51.76376 | 1.87044 | 34052 ft | 420 kts | 263° |
| 2026-05-04 20:24 | 51.75721 | 1.78814 | 34001 ft | 420 kts | 262° |
| 2026-05-04 20:25 | 51.75191 | 1.69479 | 34042 ft | 420 kts | 263° |
| 2026-05-04 20:25 | 51.74687 | 1.60076 | 34054 ft | 420 kts | 263° |
| 2026-05-04 20:26 | 51.74111 | 1.50705 | 34058 ft | 420 kts | 262° |
| 2026-05-04 20:26 | 51.73494 | 1.41336 | 34057 ft | 418 kts | 262° |
| 2026-05-04 20:27 | 51.73194 | 1.36752 | 34050 ft | 404 kts | 262° |
| 2026-05-04 20:27 | 51.72899 | 1.32255 | 34050 ft | 403 kts | 262° |
| 2026-05-04 20:27 | 51.72407 | 1.24786 | 34048 ft | 403 kts | 262° |
| 2026-05-04 20:28 | 51.71803 | 1.15717 | 34047 ft | 415 kts | 262° |
| 2026-05-04 20:28 | 51.71179 | 1.06383 | 34053 ft | 419 kts | 262° |
| 2026-05-04 20:29 | 51.70539 | 0.97049 | 34054 ft | 419 kts | 262° |
| 2026-05-04 20:29 | 51.69886 | 0.87712 | 34053 ft | 419 kts | 262° |
| 2026-05-04 20:30 | 51.69234 | 0.78407 | 34057 ft | 420 kts | 262° |
| 2026-05-04 20:30 | 51.68576 | 0.69054 | 34056 ft | 420 kts | 262° |
| 2026-05-04 20:31 | 51.67912 | 0.59694 | 34057 ft | 420 kts | 262° |
| 2026-05-04 20:31 | 51.67219 | 0.50342 | 34060 ft | 420 kts | 261° |
| 2026-05-04 20:32 | 51.66530 | 0.40993 | 34078 ft | 418 kts | 262° |
| 2026-05-04 20:32 | 51.66190 | 0.36338 | 33711 ft | 416 kts | 261° |
| 2026-05-04 20:32 | 51.65850 | 0.31737 | 33437 ft | 414 kts | 261° |
| 2026-05-04 20:33 | 51.65506 | 0.27139 | 33159 ft | 412 kts | 261° |
| 2026-05-04 20:33 | 51.65164 | 0.22579 | 32891 ft | 411 kts | 261° |
| 2026-05-04 20:33 | 51.64816 | 0.17960 | 32619 ft | 416 kts | 261° |
| 2026-05-04 20:33 | 51.64454 | 0.13350 | 32352 ft | 414 kts | 260° |
| 2026-05-04 20:34 | 51.64023 | 0.08786 | 32092 ft | 411 kts | 258° |
| 2026-05-04 20:34 | 51.63535 | 0.04259 | 31830 ft | 409 kts | 257° |
| 2026-05-04 20:34 | 51.63018 | -0.00250 | 31573 ft | 407 kts | 257° |
| 2026-05-04 20:34 | 51.62520 | -0.04517 | 31329 ft | 406 kts | 257° |
| 2026-05-04 20:35 | 51.62007 | -0.08971 | 31082 ft | 404 kts | 257° |
| 2026-05-04 20:35 | 51.61516 | -0.13412 | 30826 ft | 403 kts | 258° |
| 2026-05-04 20:35 | 51.61099 | -0.17854 | 30574 ft | 402 kts | 259° |
| 2026-05-04 20:35 | 51.60738 | -0.22300 | 30335 ft | 400 kts | 259° |
| 2026-05-04 20:36 | 51.60400 | -0.26740 | 30082 ft | 398 kts | 260° |
| 2026-05-04 20:36 | 51.60066 | -0.31157 | 29768 ft | 397 kts | 259° |
| 2026-05-04 20:36 | 51.59723 | -0.35561 | 29482 ft | 396 kts | 259° |
| 2026-05-04 20:36 | 51.59375 | -0.39885 | 29205 ft | 394 kts | 259° |
| 2026-05-04 20:37 | 51.59013 | -0.44241 | 28923 ft | 393 kts | 259° |
| 2026-05-04 20:37 | 51.58642 | -0.48595 | 28643 ft | 392 kts | 259° |
| 2026-05-04 20:37 | 51.58268 | -0.52915 | 28370 ft | 391 kts | 259° |
| 2026-05-04 20:37 | 51.57893 | -0.57241 | 28096 ft | 390 kts | 259° |
| 2026-05-04 20:38 | 51.57519 | -0.61553 | 27828 ft | 388 kts | 259° |
| 2026-05-04 20:38 | 51.57147 | -0.65850 | 27562 ft | 388 kts | 259° |
| 2026-05-04 20:38 | 51.56777 | -0.70143 | 27316 ft | 387 kts | 259° |
| 2026-05-04 20:38 | 51.56407 | -0.74423 | 27050 ft | 386 kts | 259° |
| 2026-05-04 20:39 | 51.56034 | -0.78683 | 26786 ft | 385 kts | 259° |
| 2026-05-04 20:39 | 51.55661 | -0.82932 | 26535 ft | 384 kts | 259° |
| 2026-05-04 20:39 | 51.55285 | -0.87179 | 26276 ft | 383 kts | 259° |
| 2026-05-04 20:39 | 51.54909 | -0.91419 | 26029 ft | 382 kts | 259° |
| 2026-05-04 20:40 | 51.54534 | -0.95641 | 25779 ft | 381 kts | 259° |
| 2026-05-04 20:40 | 51.54157 | -0.99856 | 25532 ft | 381 kts | 259° |
| 2026-05-04 20:40 | 51.53781 | -1.04056 | 25286 ft | 380 kts | 259° |
| 2026-05-04 20:40 | 51.53403 | -1.08251 | 25040 ft | 379 kts | 259° |
| 2026-05-04 20:41 | 51.53025 | -1.12425 | 24801 ft | 378 kts | 259° |
| 2026-05-04 20:41 | 51.52858 | -1.16625 | 24503 ft | 375 kts | 270° |
| 2026-05-04 20:41 | 51.53148 | -1.20727 | 24065 ft | 375 kts | 278° |
| 2026-05-04 20:41 | 51.53618 | -1.24853 | 23593 ft | 374 kts | 278° |
| 2026-05-04 20:42 | 51.54079 | -1.28963 | 23079 ft | 372 kts | 278° |
| 2026-05-04 20:42 | 51.54530 | -1.33048 | 22590 ft | 370 kts | 278° |
| 2026-05-04 20:42 | 51.54974 | -1.37106 | 22124 ft | 367 kts | 278° |
| 2026-05-04 20:42 | 51.55411 | -1.41131 | 21657 ft | 365 kts | 278° |
| 2026-05-04 20:43 | 51.55845 | -1.45139 | 21190 ft | 363 kts | 278° |
| 2026-05-04 20:43 | 51.56275 | -1.49115 | 20814 ft | 357 kts | 278° |
| 2026-05-04 20:43 | 51.56688 | -1.52940 | 20522 ft | 340 kts | 278° |
| 2026-05-04 20:43 | 51.57089 | -1.56647 | 19932 ft | 334 kts | 278° |
| 2026-05-04 20:44 | 51.57485 | -1.60316 | 19407 ft | 332 kts | 278° |
| 2026-05-04 20:44 | 51.57879 | -1.63983 | 18972 ft | 333 kts | 277° |
| 2026-05-04 20:44 | 51.58030 | -1.67640 | 18553 ft | 332 kts | 266° |
| 2026-05-04 20:44 | 51.57795 | -1.71315 | 18101 ft | 328 kts | 261° |
| 2026-05-04 20:45 | 51.57491 | -1.74897 | 17680 ft | 322 kts | 261° |
| 2026-05-04 20:45 | 51.57195 | -1.78413 | 17443 ft | 308 kts | 261° |
| 2026-05-04 20:45 | 51.56919 | -1.81719 | 17310 ft | 289 kts | 261° |
| 2026-05-04 20:45 | 51.56661 | -1.84816 | 17140 ft | 272 kts | 261° |
| 2026-05-04 20:46 | 51.56411 | -1.87784 | 16755 ft | 266 kts | 261° |
| 2026-05-04 20:46 | 51.56134 | -1.90625 | 16290 ft | 264 kts | 256° |
| 2026-05-04 20:46 | 51.55618 | -1.93448 | 15809 ft | 262 kts | 251° |
| 2026-05-04 20:46 | 51.55061 | -1.96238 | 15334 ft | 262 kts | 251° |
| 2026-05-04 20:47 | 51.54512 | -1.99017 | 14928 ft | 261 kts | 251° |
| 2026-05-04 20:47 | 51.53961 | -2.01808 | 14583 ft | 263 kts | 251° |
| 2026-05-04 20:47 | 51.53407 | -2.04613 | 14253 ft | 263 kts | 251° |
| 2026-05-04 20:47 | 51.52858 | -2.07397 | 13919 ft | 261 kts | 251° |
| 2026-05-04 20:48 | 51.52289 | -2.10159 | 13547 ft | 260 kts | 250° |
| 2026-05-04 20:48 | 51.51684 | -2.12876 | 13220 ft | 257 kts | 249° |
| 2026-05-04 20:48 | 51.51071 | -2.15562 | 12887 ft | 255 kts | 249° |
| 2026-05-04 20:48 | 51.50462 | -2.18218 | 12558 ft | 252 kts | 249° |
| 2026-05-04 20:49 | 51.49857 | -2.20857 | 12226 ft | 250 kts | 249° |
| 2026-05-04 20:49 | 51.49254 | -2.23471 | 11896 ft | 249 kts | 249° |
| 2026-05-04 20:49 | 51.48666 | -2.26036 | 11575 ft | 247 kts | 249° |
| 2026-05-04 20:49 | 51.48077 | -2.28613 | 11252 ft | 246 kts | 249° |
| 2026-05-04 20:50 | 51.47490 | -2.31182 | 10917 ft | 245 kts | 249° |
| 2026-05-04 20:50 | 51.46908 | -2.33732 | 10621 ft | 241 kts | 249° |
| 2026-05-04 20:50 | 51.46348 | -2.36181 | 10491 ft | 226 kts | 249° |
| 2026-05-04 20:50 | 51.45824 | -2.38469 | 10378 ft | 212 kts | 249° |
| 2026-05-04 20:51 | 51.45327 | -2.40643 | 10179 ft | 205 kts | 249° |
| 2026-05-04 20:51 | 51.44835 | -2.42795 | 9945 ft | 205 kts | 249° |
| 2026-05-04 20:51 | 51.44341 | -2.44948 | 9449 ft | 205 kts | 249° |
| 2026-05-04 20:51 | 51.43854 | -2.47067 | 9082 ft | 201 kts | 249° |
| 2026-05-04 20:52 | 51.43368 | -2.49173 | 8717 ft | 201 kts | 249° |
| 2026-05-04 20:52 | 51.42884 | -2.51267 | 8384 ft | 200 kts | 249° |
| 2026-05-04 20:52 | 51.42400 | -2.53365 | 8040 ft | 200 kts | 249° |
| 2026-05-04 20:52 | 51.41917 | -2.55456 | 7696 ft | 200 kts | 249° |
| 2026-05-04 20:53 | 51.41434 | -2.57550 | 7354 ft | 200 kts | 250° |
| 2026-05-04 20:53 | 51.40951 | -2.59633 | 7011 ft | 200 kts | 250° |
| 2026-05-04 20:53 | 51.40465 | -2.61725 | 6663 ft | 200 kts | 250° |
| 2026-05-04 20:53 | 51.39986 | -2.63793 | 6316 ft | 201 kts | 250° |
| 2026-05-04 20:54 | 51.39502 | -2.65890 | 5959 ft | 201 kts | 250° |
| 2026-05-04 20:54 | 51.39017 | -2.67980 | 5601 ft | 200 kts | 251° |
| 2026-05-04 20:54 | 51.38532 | -2.70077 | 5229 ft | 201 kts | 251° |
| 2026-05-04 20:54 | 51.38208 | -2.72239 | 4861 ft | 199 kts | 272° |
| 2026-05-04 20:55 | 51.38409 | -2.74410 | 4508 ft | 197 kts | 285° |
| 2026-05-04 20:55 | 51.38735 | -2.76540 | 4146 ft | 197 kts | 286° |
| 2026-05-04 20:55 | 51.39083 | -2.78649 | 3798 ft | 196 kts | 287° |
| 2026-05-04 20:55 | 51.39441 | -2.80759 | 3468 ft | 195 kts | 287° |
| 2026-05-04 20:56 | 51.39798 | -2.82841 | 3256 ft | 192 kts | 287° |
| 2026-05-04 20:56 | 51.40147 | -2.84900 | 3100 ft | 192 kts | 287° |
| 2026-05-04 20:56 | 51.40499 | -2.86971 | 2943 ft | 192 kts | 287° |
| 2026-05-04 20:56 | 51.40848 | -2.89035 | 2802 ft | 192 kts | 287° |
| 2026-05-04 20:57 | 51.41198 | -2.91103 | 2637 ft | 192 kts | 287° |
| 2026-05-04 20:57 | 51.41547 | -2.93171 | 2547 ft | 192 kts | 287° |
| 2026-05-04 20:57 | 51.41900 | -2.95241 | 2500 ft | 193 kts | 287° |
| 2026-05-04 20:57 | 51.42009 | -2.97372 | 2503 ft | 194 kts | 260° |
| 2026-05-04 20:58 | 51.41412 | -2.99293 | 2508 ft | 195 kts | 225° |
| 2026-05-04 20:58 | 51.40266 | -3.00381 | 2505 ft | 193 kts | 191° |
| 2026-05-04 20:58 | 51.38954 | -3.00328 | 2504 ft | 189 kts | 159° |
| 2026-05-04 20:58 | 51.37877 | -2.99222 | 2509 ft | 183 kts | 128° |
| 2026-05-04 20:59 | 51.37317 | -2.97439 | 2504 ft | 179 kts | 98° |
| 2026-05-04 20:59 | 51.37317 | -2.95469 | 2501 ft | 177 kts | 84° |
| 2026-05-04 20:59 | 51.37401 | -2.93495 | 2507 ft | 178 kts | 84° |
| 2026-05-04 20:59 | 51.37480 | -2.91566 | 2522 ft | 166 kts | 84° |
| 2026-05-04 21:00 | 51.37552 | -2.89800 | 2516 ft | 157 kts | 84° |
| 2026-05-04 21:00 | 51.37623 | -2.88074 | 2428 ft | 157 kts | 85° |
| 2026-05-04 21:00 | 51.37693 | -2.86327 | 2269 ft | 155 kts | 85° |
| 2026-05-04 21:00 | 51.37761 | -2.84636 | 2082 ft | 146 kts | 84° |
| 2026-05-04 21:01 | 51.37823 | -2.83102 | 1898 ft | 136 kts | 84° |
| 2026-05-04 21:01 | 51.37883 | -2.81593 | 1719 ft | 136 kts | 84° |
| 2026-05-04 21:01 | 51.37944 | -2.80081 | 1522 ft | 136 kts | 84° |
| 2026-05-04 21:01 | 51.37976 | -2.79284 | 1419 ft | 135 kts | 84° |
| 2026-05-04 21:02 | 51.37979 | -2.79201 | 1406 ft | 135 kts | 84° |
| 2026-05-04 21:02 | 51.38038 | -2.77704 | 1219 ft | 135 kts | 84° |
| 2026-05-04 21:02 | 51.38082 | -2.76581 | 1074 ft | 134 kts | 85° |
| 2026-05-04 21:03 | 51.38143 | -2.75086 | 856 ft | 135 kts | 84° |
| 2026-05-04 21:03 | 51.38205 | -2.73607 | 698 ft | 134 kts | 85° |
| 2026-05-04 21:03 | 51.38257 | -2.72131 | 624 ft | 127 kts | 85° |
| 2026-05-04 21:03 | 51.38297 | -2.71189 | 602 ft | 41 kts | 86° |
| 2026-05-04 21:04 | 51.38311 | -2.70860 | 612 ft | 28 kts | 87° |
| 2026-05-04 21:04 | 51.38374 | -2.70741 | 617 ft | 14 kts | 17° |
| 2026-05-04 21:04 | 51.38458 | -2.70736 | 625 ft | 13 kts | 311° |
| 2026-05-04 21:04 | 51.38465 | -2.70879 | 613 ft | 14 kts | 265° |
| 2026-05-04 21:05 | 51.38460 | -2.71034 | 616 ft | 14 kts | 267° |
| 2026-05-04 21:05 | 51.38454 | -2.71187 | 618 ft | 14 kts | 265° |
| 2026-05-04 21:05 | 51.38449 | -2.71351 | 616 ft | 16 kts | 276° |
| 2026-05-04 21:05 | 51.38530 | -2.71403 | 618 ft | 11 kts | 355° |
| 2026-05-04 21:06 | 51.38550 | -2.71406 | 618 ft | 0 kts | 355° |